createdAt,value
2018-06-24T00:00:06.964Z,9.12
2018-06-24T00:02:36.597Z,9.09
2018-06-24T00:05:05.815Z,9.09
2018-06-24T00:07:35.582Z,9.05
2018-06-24T00:10:04.872Z,9.08
2018-06-24T00:12:34.120Z,8.96
2018-06-24T00:15:03.471Z,8.92
2018-06-24T00:17:33.059Z,8.85
2018-06-24T00:20:03.043Z,8.80
2018-06-24T00:22:32.223Z,8.67
2018-06-24T00:25:01.620Z,8.60
2018-06-24T00:27:30.787Z,8.59
2018-06-24T00:30:00.182Z,8.54
2018-06-24T00:32:29.338Z,8.57
2018-06-24T00:34:58.529Z,8.54
2018-06-24T00:37:27.674Z,8.44
2018-06-24T00:39:56.886Z,8.36
2018-06-24T00:42:27.219Z,8.33
2018-06-24T00:44:56.430Z,8.23
2018-06-24T00:47:25.631Z,8.16
2018-06-24T00:49:54.822Z,8.08
2018-06-24T00:52:23.982Z,8.04
2018-06-24T00:54:53.634Z,7.99
2018-06-24T00:57:22.813Z,8.08
2018-06-24T01:00:03.391Z,8.02
2018-06-24T01:02:32.551Z,8.10
2018-06-24T01:05:01.912Z,8.11
2018-06-24T01:07:31.075Z,8.15
2018-06-24T01:10:00.266Z,8.17
2018-06-24T01:12:29.504Z,8.29
2018-06-24T01:14:59.143Z,8.40
2018-06-24T01:17:28.354Z,8.47
2018-06-24T01:19:58.819Z,8.55
2018-06-24T01:22:28.494Z,8.61
2018-06-24T01:24:58.406Z,8.64
2018-06-24T01:27:27.805Z,8.74
2018-06-24T01:29:56.995Z,8.83
2018-06-24T01:32:26.150Z,8.96
2018-06-24T01:34:55.468Z,9.01
2018-06-24T01:37:24.640Z,9.10
2018-06-24T01:39:53.838Z,9.20
2018-06-24T01:42:23.010Z,9.19
2018-06-24T01:44:52.423Z,9.21
2018-06-24T01:47:22.095Z,9.30
2018-06-24T01:49:51.306Z,9.34
2018-06-24T01:52:20.498Z,9.44
2018-06-24T01:54:49.691Z,9.47
2018-06-24T01:57:18.884Z,9.39
2018-06-24T01:59:48.051Z,9.36
2018-06-24T02:02:17.274Z,9.33
2018-06-24T02:04:46.678Z,9.29
2018-06-24T02:07:15.970Z,9.18
2018-06-24T02:09:45.955Z,9.12
2018-06-24T02:12:15.658Z,9.00
2018-06-24T02:14:44.815Z,9.00
2018-06-24T02:17:14.020Z,9.07
2018-06-24T02:19:43.185Z,9.09
2018-06-24T02:22:12.385Z,9.22
2018-06-24T02:24:41.572Z,9.26
2018-06-24T02:27:10.815Z,9.21
2018-06-24T02:29:40.369Z,9.24
2018-06-24T02:32:09.990Z,9.23
2018-06-24T02:34:39.175Z,9.22
2018-06-24T02:37:08.784Z,9.20
2018-06-24T02:39:38.191Z,9.20
2018-06-24T02:42:07.527Z,9.23
2018-06-24T02:44:36.699Z,9.15
2018-06-24T02:47:06.071Z,9.14
2018-06-24T02:49:35.281Z,9.16
2018-06-24T02:52:04.584Z,9.20
2018-06-24T02:54:33.758Z,9.25
2018-06-24T02:57:03.027Z,9.30
2018-06-24T02:59:32.212Z,9.39
2018-06-24T03:02:01.414Z,9.50
2018-06-24T03:04:30.610Z,9.57
2018-06-24T03:06:59.923Z,9.62
2018-06-24T03:09:29.090Z,9.75
2018-06-24T03:11:58.542Z,9.72
2018-06-24T03:14:27.707Z,9.70
2018-06-24T03:16:57.431Z,9.81
2018-06-24T03:19:26.614Z,9.86
2018-06-24T03:21:56.030Z,9.95
2018-06-24T03:24:25.305Z,10.00
2018-06-24T03:26:54.510Z,9.99
2018-06-24T03:29:23.817Z,9.97
2018-06-24T03:31:53.831Z,9.99
2018-06-24T03:34:23.759Z,9.96
2018-06-24T03:36:52.955Z,10.04
2018-06-24T03:39:22.154Z,10.13
2018-06-24T03:41:51.379Z,10.06
2018-06-24T03:44:20.571Z,10.10
2018-06-24T03:46:50.044Z,9.94
2018-06-24T03:49:19.266Z,10.01
2018-06-24T03:51:48.453Z,10.16
2018-06-24T03:54:18.166Z,10.28
2018-06-24T03:56:47.358Z,10.36
2018-06-24T03:59:16.559Z,10.43
2018-06-24T04:01:46.308Z,10.50
2018-06-24T04:04:15.619Z,10.43
2018-06-24T04:06:44.836Z,10.42
2018-06-24T04:09:14.059Z,10.47
2018-06-24T04:11:43.344Z,10.58
2018-06-24T04:14:12.655Z,10.69
2018-06-24T04:16:42.123Z,10.77
2018-06-24T04:19:12.040Z,10.78
2018-06-24T04:21:41.766Z,10.71
2018-06-24T04:24:10.983Z,10.73
2018-06-24T04:26:40.158Z,10.78
2018-06-24T04:29:09.405Z,10.89
2018-06-24T04:31:38.612Z,11.00
2018-06-24T04:34:07.846Z,11.06
2018-06-24T04:36:37.027Z,11.21
2018-06-24T04:39:08.784Z,11.31
2018-06-24T04:41:39.011Z,11.48
2018-06-24T04:44:08.255Z,11.51
2018-06-24T04:46:37.457Z,11.48
2018-06-24T04:49:06.719Z,11.60
2018-06-24T04:51:35.924Z,11.62
2018-06-24T04:54:05.310Z,11.67
2018-06-24T04:56:34.575Z,11.75
2018-06-24T04:59:03.775Z,11.78
2018-06-24T05:01:32.978Z,12.04
2018-06-24T05:04:02.203Z,12.25
2018-06-24T05:06:31.394Z,12.46
2018-06-24T05:09:01.165Z,12.67
2018-06-24T05:11:30.684Z,12.83
2018-06-24T05:14:00.495Z,12.88
2018-06-24T05:16:29.727Z,13.25
2018-06-24T05:18:59.290Z,13.52
2018-06-24T05:21:28.530Z,13.70
2018-06-24T05:23:57.738Z,14.01
2018-06-24T05:26:27.069Z,14.17
2018-06-24T05:28:56.251Z,14.19
2018-06-24T05:31:25.723Z,14.21
2018-06-24T05:33:54.866Z,14.39
2018-06-24T05:36:24.067Z,14.45
2018-06-24T05:38:53.247Z,14.77
2018-06-24T05:41:22.456Z,14.93
2018-06-24T05:43:51.876Z,14.80
2018-06-24T05:46:21.119Z,14.78
2018-06-24T05:48:50.397Z,14.50
2018-06-24T05:51:19.743Z,14.43
2018-06-24T05:53:49.202Z,14.70
2018-06-24T05:56:19.048Z,15.07
2018-06-24T05:58:48.214Z,16.16
2018-06-24T06:01:17.478Z,16.47
2018-06-24T06:03:46.741Z,16.65
2018-06-24T06:06:16.007Z,17.14
2018-06-24T06:08:45.194Z,18.22
2018-06-24T06:11:14.407Z,18.22
2018-06-24T06:13:43.724Z,18.25
2018-06-24T06:16:12.915Z,17.63
2018-06-24T06:18:42.211Z,17.15
2018-06-24T06:21:11.427Z,16.89
2018-06-24T06:23:40.935Z,16.73
2018-06-24T06:26:10.389Z,17.44
2018-06-24T06:28:39.738Z,17.99
2018-06-24T06:31:09.430Z,18.63
2018-06-24T06:33:38.644Z,18.82
2018-06-24T06:36:08.238Z,19.28
2018-06-24T06:38:37.428Z,17.83
2018-06-24T06:41:06.739Z,17.92
2018-06-24T06:43:36.086Z,17.57
2018-06-24T06:46:09.382Z,17.38
2018-06-24T06:48:38.711Z,16.76
2018-06-24T06:51:08.967Z,16.86
2018-06-24T06:53:38.159Z,17.64
2018-06-24T06:56:07.859Z,17.19
2018-06-24T06:58:37.670Z,17.80
2018-06-24T07:01:06.883Z,17.49
2018-06-24T07:03:36.412Z,18.21
2018-06-24T07:06:05.630Z,18.52
2018-06-24T07:08:34.920Z,18.35
2018-06-24T07:11:04.279Z,18.23
2018-06-24T07:13:33.731Z,17.77
2018-06-24T07:16:03.384Z,17.48
2018-06-24T07:18:32.814Z,17.20
2018-06-24T07:21:02.012Z,17.74
2018-06-24T07:23:31.218Z,17.53
2018-06-24T07:26:00.746Z,18.69
2018-06-24T07:28:30.008Z,18.65
2018-06-24T07:30:59.471Z,19.35
2018-06-24T07:33:28.699Z,19.93
2018-06-24T07:35:57.844Z,19.31
2018-06-24T07:38:27.101Z,19.14
2018-06-24T07:40:56.272Z,18.55
2018-06-24T07:43:25.469Z,18.27
2018-06-24T07:45:54.643Z,18.05
2018-06-24T07:48:23.840Z,18.04
2018-06-24T07:50:53.088Z,17.93
2018-06-24T07:53:22.312Z,17.55
2018-06-24T07:55:51.530Z,18.99
2018-06-24T07:58:20.735Z,20.41
2018-06-24T08:00:50.675Z,22.81
2018-06-24T08:03:19.858Z,23.87
2018-06-24T08:05:49.321Z,24.10
2018-06-24T08:08:18.903Z,24.04
2018-06-24T08:10:48.130Z,24.00
2018-06-24T08:13:17.327Z,24.62
2018-06-24T08:15:46.939Z,24.08
2018-06-24T08:18:16.730Z,22.19
2018-06-24T08:20:46.398Z,20.76
2018-06-24T08:23:15.839Z,21.42
2018-06-24T08:25:45.103Z,22.33
2018-06-24T08:28:14.295Z,24.56
2018-06-24T08:30:44.059Z,26.09
2018-06-24T08:33:13.904Z,27.51
2018-06-24T08:35:43.119Z,28.27
2018-06-24T08:38:12.384Z,28.40
2018-06-24T08:40:41.574Z,28.85
2018-06-24T08:43:10.811Z,27.82
2018-06-24T08:45:40.091Z,23.98
2018-06-24T08:48:09.262Z,22.22
2018-06-24T08:50:39.412Z,21.37
2018-06-24T08:53:08.630Z,20.61
2018-06-24T08:55:37.888Z,20.65
2018-06-24T08:58:07.104Z,19.90
2018-06-24T09:00:36.481Z,19.64
2018-06-24T09:03:05.723Z,19.36
2018-06-24T09:05:34.963Z,18.90
2018-06-24T09:08:04.464Z,18.53
2018-06-24T09:10:33.676Z,19.00
2018-06-24T09:13:02.866Z,19.24
2018-06-24T09:15:32.144Z,19.80
2018-06-24T09:18:01.692Z,21.10
2018-06-24T09:20:31.022Z,23.00
2018-06-24T09:23:00.527Z,24.74
2018-06-24T09:25:30.451Z,24.15
2018-06-24T09:28:00.044Z,23.28
2018-06-24T09:30:29.550Z,22.85
2018-06-24T09:32:58.744Z,22.14
2018-06-24T09:35:27.914Z,21.21
2018-06-24T09:37:57.136Z,21.34
2018-06-24T09:40:26.571Z,20.94
2018-06-24T09:42:56.527Z,21.32
2018-06-24T09:45:26.319Z,20.80
2018-06-24T09:47:56.183Z,21.83
2018-06-24T09:50:25.366Z,22.49
2018-06-24T09:52:54.674Z,22.85
2018-06-24T09:55:23.834Z,21.39
2018-06-24T09:57:53.375Z,21.00
2018-06-24T10:00:23.782Z,21.36
2018-06-24T10:02:54.113Z,22.53
2018-06-24T10:05:23.711Z,21.98
2018-06-24T10:07:53.269Z,20.84
2018-06-24T10:10:22.679Z,20.28
2018-06-24T10:12:52.171Z,19.97
2018-06-24T10:15:21.351Z,19.21
2018-06-24T10:17:50.724Z,19.64
2018-06-24T10:20:19.883Z,19.83
2018-06-24T10:22:49.227Z,20.35
2018-06-24T10:25:18.419Z,21.03
2018-06-24T10:27:47.630Z,20.91
2018-06-24T10:30:17.671Z,22.00
2018-06-24T10:32:47.223Z,22.93
2018-06-24T10:35:16.502Z,23.65
2018-06-24T10:37:45.707Z,24.54
2018-06-24T10:40:15.203Z,25.68
2018-06-24T10:42:44.784Z,26.53
2018-06-24T10:45:14.010Z,27.01
2018-06-24T10:47:43.207Z,25.32
2018-06-24T10:50:12.659Z,24.30
2018-06-24T10:52:41.935Z,24.20
2018-06-24T10:55:11.411Z,24.08
2018-06-24T10:57:40.639Z,23.44
2018-06-24T11:00:09.870Z,23.81
2018-06-24T11:02:39.055Z,22.99
2018-06-24T11:05:08.295Z,22.69
2018-06-24T11:07:37.758Z,22.08
2018-06-24T11:10:07.005Z,21.80
2018-06-24T11:12:36.287Z,22.02
2018-06-24T11:15:05.563Z,22.26
2018-06-24T11:17:34.750Z,22.40
2018-06-24T11:20:04.015Z,23.96
2018-06-24T11:22:33.213Z,24.44
2018-06-24T11:25:02.911Z,25.21
2018-06-24T11:27:32.403Z,25.36
2018-06-24T11:30:02.056Z,27.26
2018-06-24T11:32:31.258Z,27.97
2018-06-24T11:35:00.466Z,28.24
2018-06-24T11:37:29.838Z,28.03
2018-06-24T11:39:59.071Z,26.63
2018-06-24T11:42:28.291Z,27.42
2018-06-24T11:44:57.499Z,25.48
2018-06-24T11:47:27.244Z,24.02
2018-06-24T11:49:56.439Z,25.77
2018-06-24T11:52:25.619Z,27.75
2018-06-24T11:54:54.790Z,28.58
2018-06-24T11:57:24.303Z,27.83
2018-06-24T11:59:53.819Z,26.93
2018-06-24T12:02:24.199Z,27.69
2018-06-24T12:04:53.962Z,28.98
2018-06-24T12:07:23.178Z,27.99
2018-06-24T12:09:52.376Z,27.87
2018-06-24T12:12:21.811Z,27.83
2018-06-24T12:14:50.994Z,28.66
2018-06-24T12:17:20.388Z,29.08
2018-06-24T12:19:49.783Z,26.75
2018-06-24T12:22:18.986Z,25.29
2018-06-24T12:24:48.806Z,24.17
2018-06-24T12:27:18.009Z,23.77
2018-06-24T12:29:47.187Z,23.34
2018-06-24T12:32:16.393Z,22.61
2018-06-24T12:34:45.564Z,22.95
2018-06-24T12:37:14.827Z,22.92
2018-06-24T12:39:44.007Z,23.79
2018-06-24T12:42:13.551Z,24.23
2018-06-24T12:44:42.759Z,24.11
2018-06-24T12:47:12.351Z,26.24
2018-06-24T12:49:41.811Z,27.40
2018-06-24T12:52:11.035Z,27.73
2018-06-24T12:54:40.247Z,26.58
2018-06-24T12:57:09.925Z,24.67
2018-06-24T12:59:39.359Z,26.12
2018-06-24T13:06:59.515Z,27.06
2018-06-24T13:09:29.082Z,27.77
2018-06-24T13:11:58.427Z,27.03
2018-06-24T13:14:27.976Z,27.76
2018-06-24T13:16:57.165Z,26.51
2018-06-24T13:19:26.607Z,24.95
2018-06-24T13:21:56.020Z,25.12
2018-06-24T13:24:25.271Z,24.97
2018-06-24T13:26:54.663Z,23.43
2018-06-24T13:29:23.871Z,22.03
2018-06-24T13:31:54.047Z,21.96
2018-06-24T13:34:23.298Z,22.16
2018-06-24T13:36:53.086Z,22.00
2018-06-24T13:39:22.286Z,23.26
2018-06-24T13:41:52.206Z,25.06
2018-06-24T13:44:21.435Z,24.78
2018-06-24T13:46:50.748Z,24.58
2018-06-24T13:49:19.962Z,22.96
2018-06-24T13:51:49.246Z,23.56
2018-06-24T13:54:18.785Z,23.59
2018-06-24T13:56:48.071Z,23.78
2018-06-24T13:59:17.876Z,24.50
2018-06-24T14:01:47.048Z,24.22
2018-06-24T14:04:16.330Z,24.03
2018-06-24T14:06:45.543Z,23.62
2018-06-24T14:09:15.119Z,23.40
2018-06-24T14:11:44.322Z,23.94
2018-06-24T14:14:13.809Z,24.27
2018-06-24T14:16:43.015Z,24.70
2018-06-24T14:19:12.227Z,24.90
2018-06-24T14:21:41.439Z,25.03
2018-06-24T14:24:10.651Z,23.92
2018-06-24T14:26:40.187Z,23.77
2018-06-24T14:29:09.401Z,23.73
2018-06-24T14:31:38.607Z,23.83
2018-06-24T14:34:07.828Z,23.52
2018-06-24T14:36:37.013Z,23.27
2018-06-24T14:39:08.363Z,23.62
2018-06-24T14:41:37.863Z,23.80
2018-06-24T14:44:07.386Z,23.74
2018-06-24T14:46:36.639Z,23.61
2018-06-24T14:49:05.848Z,22.68
2018-06-24T14:51:35.059Z,22.88
2018-06-24T14:54:04.263Z,22.75
2018-06-24T14:56:33.878Z,23.34
2018-06-24T14:59:03.075Z,23.35
2018-06-24T15:01:32.369Z,22.56
2018-06-24T15:04:01.578Z,22.40
2018-06-24T15:06:30.774Z,22.05
2018-06-24T15:09:00.317Z,21.64
2018-06-24T15:11:29.515Z,21.17
2018-06-24T15:13:58.687Z,21.03
2018-06-24T15:16:28.742Z,21.01
2018-06-24T15:18:58.419Z,21.47
2018-06-24T15:21:27.632Z,21.75
2018-06-24T15:23:56.818Z,21.73
2018-06-24T15:26:26.003Z,21.51
2018-06-24T15:28:55.162Z,22.03
2018-06-24T15:31:25.347Z,21.59
2018-06-24T15:33:54.591Z,21.89
2018-06-24T15:36:23.795Z,21.86
2018-06-24T15:38:52.966Z,21.52
2018-06-24T15:41:22.467Z,20.92
2018-06-24T15:43:51.686Z,20.48
2018-06-24T15:46:20.911Z,20.43
2018-06-24T15:48:50.071Z,20.43
2018-06-24T15:51:19.990Z,20.39
2018-06-24T15:53:49.423Z,19.80
2018-06-24T15:56:18.651Z,19.83
2018-06-24T15:58:48.250Z,19.91
2018-06-24T16:01:18.251Z,20.16
2018-06-24T16:03:47.433Z,20.48
2018-06-24T16:06:16.607Z,20.31
2018-06-24T16:08:45.975Z,20.72
2018-06-24T16:11:15.170Z,20.76
2018-06-24T16:13:44.838Z,20.85
2018-06-24T16:16:14.362Z,20.51
2018-06-24T16:18:43.802Z,20.72
2018-06-24T16:21:13.147Z,20.48
2018-06-24T16:23:43.015Z,20.75
2018-06-24T16:26:12.751Z,20.59
2018-06-24T16:28:42.240Z,20.78
2018-06-24T16:31:11.798Z,20.50
2018-06-24T16:33:41.003Z,20.48
2018-06-24T16:36:10.175Z,20.11
2018-06-24T16:38:39.399Z,20.16
2018-06-24T16:41:08.821Z,20.03
2018-06-24T16:43:38.093Z,19.71
2018-06-24T16:46:07.274Z,19.46
2018-06-24T16:48:36.883Z,19.54
2018-06-24T16:51:06.069Z,19.55
2018-06-24T16:53:35.274Z,19.36
2018-06-24T16:56:04.973Z,19.40
2018-06-24T16:58:34.192Z,19.53
2018-06-24T17:01:03.402Z,19.49
2018-06-24T17:03:33.017Z,19.44
2018-06-24T17:06:02.207Z,19.59
2018-06-24T17:08:31.503Z,19.46
2018-06-24T17:11:00.678Z,19.47
2018-06-24T17:13:30.062Z,19.53
2018-06-24T17:15:59.255Z,19.47
2018-06-24T17:18:28.539Z,19.10
2018-06-24T17:20:58.320Z,19.12
2018-06-24T17:23:27.486Z,18.72
2018-06-24T17:25:56.992Z,18.55
2018-06-24T17:28:26.495Z,18.51
2018-06-24T17:30:56.703Z,18.41
2018-06-24T17:33:25.899Z,18.58
2018-06-24T17:35:55.559Z,18.37
2018-06-24T17:38:24.731Z,18.25
2018-06-24T17:40:53.943Z,18.53
2018-06-24T17:43:23.242Z,18.35
2018-06-24T17:45:52.451Z,18.03
2018-06-24T17:48:21.627Z,18.20
2018-06-24T17:50:50.826Z,18.03
2018-06-24T17:53:20.067Z,18.11
2018-06-24T17:55:49.636Z,18.24
2018-06-24T17:58:19.134Z,17.94
2018-06-24T18:00:48.439Z,17.98
2018-06-24T18:03:17.619Z,18.07
2018-06-24T18:05:47.299Z,17.93
2018-06-24T18:08:17.419Z,17.97
2018-06-24T18:10:47.587Z,18.02
2018-06-24T18:13:16.790Z,17.68
2018-06-24T18:15:45.999Z,17.76
2018-06-24T18:18:15.680Z,17.86
2018-06-24T18:20:44.879Z,17.64
2018-06-24T18:23:14.606Z,17.55
2018-06-24T18:25:43.784Z,17.53
2018-06-24T18:28:13.113Z,17.71
2018-06-24T18:30:42.215Z,17.93
2018-06-24T18:33:11.498Z,17.62
2018-06-24T18:35:40.598Z,17.46
2018-06-24T18:38:09.803Z,17.52
2018-06-24T18:40:39.098Z,17.53
2018-06-24T18:43:08.455Z,17.21
2018-06-24T18:45:38.395Z,17.20
2018-06-24T18:48:07.619Z,17.08
2018-06-24T18:50:36.778Z,16.91
2018-06-24T18:53:06.147Z,16.83
2018-06-24T18:55:35.315Z,16.86
2018-06-24T18:58:04.559Z,16.99
2018-06-24T19:00:33.751Z,16.91
2018-06-24T19:03:03.267Z,16.98
2018-06-24T19:05:32.307Z,16.92
2018-06-24T19:08:02.038Z,16.85
2018-06-24T19:10:31.219Z,16.85
2018-06-24T19:13:00.422Z,16.74
2018-06-24T19:15:30.512Z,16.69
2018-06-24T19:17:59.723Z,16.62
2018-06-24T19:20:28.902Z,16.53
2018-06-24T19:22:58.654Z,16.54
2018-06-24T19:25:27.854Z,16.43
2018-06-24T19:27:57.187Z,16.37
2018-06-24T19:30:26.368Z,16.54
2018-06-24T19:32:55.668Z,16.45
2018-06-24T19:35:25.155Z,16.52
2018-06-24T19:37:54.359Z,16.53
2018-06-24T19:40:23.708Z,16.42
2018-06-24T19:42:53.175Z,16.29
2018-06-24T19:45:22.342Z,16.37
2018-06-24T19:47:51.554Z,16.40
2018-06-24T19:50:20.727Z,16.35
2018-06-24T19:52:49.919Z,16.36
2018-06-24T19:55:19.731Z,16.29
2018-06-24T19:57:48.963Z,16.36
2018-06-24T20:00:18.148Z,16.25
2018-06-24T20:02:47.675Z,16.15
2018-06-24T20:05:17.223Z,16.13
2018-06-24T20:07:46.430Z,16.12
2018-06-24T20:10:15.631Z,16.03
2018-06-24T20:12:45.117Z,15.99
2018-06-24T20:15:14.594Z,15.92
2018-06-24T20:17:43.787Z,15.93
2018-06-24T20:20:13.660Z,16.04
2018-06-24T20:22:42.867Z,15.99
2018-06-24T20:25:12.059Z,15.96
2018-06-24T20:27:41.275Z,15.87
2018-06-24T20:30:10.508Z,15.87
2018-06-24T20:32:39.688Z,15.86
2018-06-24T20:35:09.003Z,15.98
2018-06-24T20:37:38.171Z,15.88
2018-06-24T20:40:07.422Z,15.93
2018-06-24T20:42:36.703Z,15.97
2018-06-24T20:45:06.500Z,15.96
2018-06-24T20:47:35.678Z,15.84
2018-06-24T20:50:05.537Z,15.74
2018-06-24T20:52:34.762Z,15.66
2018-06-24T20:55:04.005Z,15.70
2018-06-24T20:57:33.226Z,15.77
2018-06-24T21:00:02.698Z,15.61
2018-06-24T21:02:31.925Z,15.60
2018-06-24T21:05:01.291Z,15.60
2018-06-24T21:07:30.720Z,15.54
2018-06-24T21:09:59.935Z,15.57
2018-06-24T21:12:29.118Z,15.53
2018-06-24T21:14:58.342Z,15.53
2018-06-24T21:17:27.511Z,15.44
2018-06-24T21:19:56.719Z,15.48
2018-06-24T21:22:26.035Z,15.53
2018-06-24T21:24:55.231Z,15.56
2018-06-24T21:27:24.618Z,15.58
2018-06-24T21:29:53.827Z,15.51
2018-06-24T21:32:23.023Z,15.56
2018-06-24T21:34:52.646Z,15.49
2018-06-24T21:37:21.822Z,15.37
2018-06-24T21:39:51.031Z,15.37
2018-06-24T21:42:20.302Z,15.14
2018-06-24T21:44:49.870Z,15.13
2018-06-24T21:47:19.210Z,15.14
2018-06-24T21:49:48.410Z,15.16
2018-06-24T21:52:17.627Z,14.99
2018-06-24T21:54:46.795Z,14.96
2018-06-24T21:57:16.266Z,15.08
2018-06-24T21:59:45.452Z,15.10
2018-06-24T22:02:14.660Z,15.01
2018-06-24T22:04:44.167Z,15.09
2018-06-24T22:07:13.395Z,14.99
2018-06-24T22:09:42.596Z,14.98
2018-06-24T22:12:11.807Z,14.94
2018-06-24T22:14:41.247Z,14.85
2018-06-24T22:17:10.491Z,14.96
2018-06-24T22:19:39.664Z,14.99
2018-06-24T22:22:08.883Z,15.06
2018-06-24T22:24:38.220Z,15.10
2018-06-24T22:27:07.815Z,15.03
2018-06-24T22:29:37.310Z,14.98
2018-06-24T22:32:06.863Z,14.89
2018-06-24T22:34:36.033Z,14.82
2018-06-24T22:37:05.306Z,14.79
2018-06-24T22:39:34.586Z,14.78
2018-06-24T22:42:03.806Z,14.92
2018-06-24T22:44:33.322Z,14.80
2018-06-24T22:47:02.847Z,14.89
2018-06-24T22:49:32.258Z,14.74
2018-06-24T22:52:01.472Z,14.80
2018-06-24T22:54:30.950Z,14.76
2018-06-24T22:57:00.267Z,14.99
2018-06-24T22:59:40.602Z,14.83
2018-06-24T23:02:09.828Z,14.77
2018-06-24T23:04:38.866Z,14.77
2018-06-24T23:07:08.071Z,14.72
2018-06-24T23:09:37.270Z,14.82
2018-06-24T23:12:06.943Z,14.85
2018-06-24T23:14:36.143Z,14.75
2018-06-24T23:17:05.355Z,14.75
2018-06-24T23:19:34.570Z,14.73
2018-06-24T23:22:03.791Z,14.60
2018-06-24T23:24:32.995Z,14.58
2018-06-24T23:27:02.174Z,14.62
2018-06-24T23:29:31.982Z,14.62
2018-06-24T23:32:01.180Z,14.60
2018-06-24T23:34:30.898Z,14.56
2018-06-24T23:37:00.070Z,14.57
2018-06-24T23:39:29.262Z,14.52
2018-06-24T23:41:58.447Z,14.66
2018-06-24T23:44:28.152Z,14.54
2018-06-24T23:46:57.340Z,14.58
2018-06-24T23:49:26.579Z,14.59
2018-06-24T23:51:55.774Z,14.68
2018-06-24T23:54:25.370Z,14.52
2018-06-24T23:56:54.685Z,14.65
2018-06-24T23:59:24.174Z,14.59
